Impacts TAF Board
For situational awareness. Not to be used for flight planning purposes.
IDs:

KPBF - Pine Bluff/Grider Fl, AR, US

Issued at 2321 UTC 05 Dec 2019
Updated at 0123 UTC 06 Dec 2019
Potential Impact None Slight Moderate High
Time0053Z 06/02Z 06/03Z 06/04Z 06/05Z 06/06Z 06/07Z 06/08Z 06/09Z 06/10Z 06/11Z 06/12Z 06/13Z 06/14Z>>
Type OBS PRVL PRVL PRVL PRVL PRVL PRVL PRVL PRVL PRVL
  [TEMP]  
PRVL
  [TEMP]  
PRVL
  [TEMP]  
PRVL
  [TEMP]  
PRVL
VIS 10 >6 >6 >6 >6 6 6 6 6 6
  [4]  
6
  [4]  
6
  [4]  
6
  [4]  
3
CIG 110 60 60 60 60 40 40 40 40 30
  [15]  
30
  [15]  
30
  [15]  
30
  [15]  
12
Cover OVC BKN BKN BKN BKN OVC OVC OVC OVC OVC
  [BKN]  
OVC
  [BKN]  
OVC
  [BKN]  
OVC
  [BKN]  
OVC
FltCat VFR VFR VFR VFR VFR VFR VFR VFR VFR MVFR
  [MVFR]  
MVFR
  [MVFR]  
MVFR
  [MVFR]  
MVFR
  [MVFR]  
MVFR
WX -- -- -- -- -- BR VCSH BR VCSH BR VCSH BR VCSH -SHRA BR
  [-TSRA BR]  
-SHRA BR
  [-TSRA BR]  
-SHRA BR
  [-TSRA BR]  
-SHRA BR
  [-TSRA BR]  
-RA BR
WDir 160 150 150 150 150 160 160 160 160 140
[140]
140
[140]
140
[140]
140
[140]
80
WSpd 8 7 7 7 7 6 6 6 6 5
  [5]  
5
  [5]  
5
  [5]  
5
  [5]  
5
WGst -- -- -- -- -- -- -- -- -- --
  [--]  
--
  [--]  
--
  [--]  
--
  [--]  
--
Raw TAF
KPBF 052321Z 0600/0624 16008KT P6SM BKN100
  FM060200 15007KT P6SM BKN060 BKN100
  FM060600 16006KT 6SM BR VCSH OVC040
  FM061000 14005KT 6SM -SHRA BR SCT015 OVC030
  TEMPO 0610/0614 4SM -TSRA BR BKN015CB
  FM061400 08005KT 3SM -RA BR OVC012
  FM061700 36008KT 3SM BR OVC010


Raw METAR
KPBF 060053Z AUTO 16008KT 10SM OVC110 15/03 A3001 RMK AO2 SLP160 T01500033
KPBF 052353Z AUTO 15008KT 10SM SCT100 OVC120 16/04 A3001 RMK AO2 SLP160 T01560039 10194 20156 53006
KPBF 052253Z AUTO 16008KT 10SM OVC110 17/03 A3000 RMK AO2 SLP157 T01670033

METAR Board
Radar Display
Forecast Discussion
For situational awareness. Not to be used for flight planning purposes.